TimeMST,TemperatureF,Dew PointF,Humidity,Sea Level PressureIn,VisibilityMPH,Wind Direction,Wind SpeedMPH,Gust SpeedMPH,PrecipitationIn,Events,Conditions,WindDirDegrees,DateUTC
12:52 AM,42.1,26.1,53,30.00,10.0,NNW,15.0,-,N/A,,Clear,330,2012-11-19 07:52:00
1:52 AM,39.0,24.1,55,30.03,10.0,NW,12.7,-,N/A,,Clear,320,2012-11-19 08:52:00
2:52 AM,34.0,21.0,59,30.07,10.0,NW,8.1,-,N/A,,Clear,310,2012-11-19 09:52:00
3:52 AM,36.0,19.9,52,30.09,10.0,NNW,11.5,-,N/A,,Clear,330,2012-11-19 10:52:00
4:52 AM,32.0,18.0,56,30.12,10.0,NNW,6.9,-,N/A,,Clear,340,2012-11-19 11:52:00
5:52 AM,32.0,18.0,56,30.15,10.0,WNW,6.9,-,N/A,,Clear,300,2012-11-19 12:52:00
6:52 AM,33.1,21.0,61,30.17,10.0,WNW,9.2,-,N/A,,Clear,300,2012-11-19 13:52:00
7:52 AM,39.0,23.0,53,30.17,10.0,NW,4.6,-,N/A,,Clear,310,2012-11-19 14:52:00
8:52 AM,39.0,24.1,55,30.19,10.0,Calm,Calm,-,N/A,,Clear,0,2012-11-19 15:52:00
9:52 AM,48.0,19.0,32,30.17,10.0,South,5.8,-,N/A,,Clear,170,2012-11-19 16:52:00
10:52 AM,51.1,30.0,44,30.17,10.0,South,6.9,-,N/A,,Clear,180,2012-11-19 17:52:00
11:52 AM,54.0,26.1,34,30.13,10.0,South,10.4,-,N/A,,Clear,190,2012-11-19 18:52:00
12:52 PM,54.0,23.0,30,30.12,10.0,South,13.8,-,N/A,,Clear,180,2012-11-19 19:52:00
1:52 PM,54.0,27.0,35,30.10,10.0,South,11.5,-,N/A,,Clear,170,2012-11-19 20:52:00
2:52 PM,53.1,25.0,34,30.12,10.0,SE,13.8,-,N/A,,Clear,140,2012-11-19 21:52:00
3:52 PM,50.0,25.0,38,30.13,10.0,ESE,9.2,-,N/A,,Clear,120,2012-11-19 22:52:00
4:52 PM,39.9,23.0,51,30.16,10.0,ENE,8.1,-,N/A,,Clear,70,2012-11-19 23:52:00
5:52 PM,37.0,21.0,52,30.19,10.0,Calm,Calm,-,N/A,,Clear,0,2012-11-20 00:52:00
6:52 PM,34.0,21.0,59,30.19,10.0,Calm,Calm,-,N/A,,Clear,0,2012-11-20 01:52:00
7:52 PM,37.9,23.0,55,30.17,10.0,ESE,4.6,-,N/A,,Clear,110,2012-11-20 02:52:00
8:52 PM,35.1,21.9,59,30.16,10.0,Calm,Calm,-,N/A,,Clear,0,2012-11-20 03:52:00
9:52 PM,35.1,23.0,61,30.12,10.0,ESE,4.6,-,N/A,,Clear,110,2012-11-20 04:52:00
10:52 PM,34.0,23.0,64,30.09,10.0,East,4.6,-,N/A,,Clear,80,2012-11-20 05:52:00
11:52 PM,32.0,24.1,73,30.09,10.0,Calm,Calm,-,N/A,,Clear,0,2012-11-20 06:52:00